sensor_id;sensor_type;location;lat;lon;timestamp;P1;durP1;ratioP1;P2;durP2;ratioP2
17201;SDS011;8717;53.588;10.176;2023-08-30T00:01:27;4.33;;;3.60;;
17201;SDS011;8717;53.588;10.176;2023-08-30T00:03:54;4.33;;;3.47;;
17201;SDS011;8717;53.588;10.176;2023-08-30T00:06:20;3.77;;;3.20;;
17201;SDS011;8717;53.588;10.176;2023-08-30T00:08:47;3.90;;;3.50;;
17201;SDS011;8717;53.588;10.176;2023-08-30T00:11:14;5.73;;;3.13;;
17201;SDS011;8717;53.588;10.176;2023-08-30T00:13:42;4.10;;;3.23;;
17201;SDS011;8717;53.588;10.176;2023-08-30T00:16:09;6.87;;;3.43;;
17201;SDS011;8717;53.588;10.176;2023-08-30T00:18:35;3.37;;;3.07;;
17201;SDS011;8717;53.588;10.176;2023-08-30T00:21:02;4.00;;;3.20;;
17201;SDS011;8717;53.588;10.176;2023-08-30T00:23:29;3.30;;;3.00;;
17201;SDS011;8717;53.588;10.176;2023-08-30T00:25:55;3.73;;;3.37;;
17201;SDS011;8717;53.588;10.176;2023-08-30T00:28:22;4.33;;;3.37;;
17201;SDS011;8717;53.588;10.176;2023-08-30T00:30:53;4.27;;;3.30;;
17201;SDS011;8717;53.588;10.176;2023-08-30T00:33:21;4.00;;;3.50;;
17201;SDS011;8717;53.588;10.176;2023-08-30T00:35:54;3.53;;;3.23;;
17201;SDS011;8717;53.588;10.176;2023-08-30T00:38:22;3.90;;;3.30;;
17201;SDS011;8717;53.588;10.176;2023-08-30T00:40:48;3.60;;;2.83;;
17201;SDS011;8717;53.588;10.176;2023-08-30T00:43:15;3.90;;;3.50;;
17201;SDS011;8717;53.588;10.176;2023-08-30T00:45:42;5.20;;;4.57;;
17201;SDS011;8717;53.588;10.176;2023-08-30T00:48:10;4.80;;;4.00;;
17201;SDS011;8717;53.588;10.176;2023-08-30T00:50:37;4.63;;;3.37;;
17201;SDS011;8717;53.588;10.176;2023-08-30T00:53:05;4.50;;;3.70;;
17201;SDS011;8717;53.588;10.176;2023-08-30T00:55:33;4.50;;;3.43;;
17201;SDS011;8717;53.588;10.176;2023-08-30T00:58:01;4.93;;;3.97;;
17201;SDS011;8717;53.588;10.176;2023-08-30T01:00:28;4.43;;;3.90;;
17201;SDS011;8717;53.588;10.176;2023-08-30T01:02:55;4.43;;;4.00;;
17201;SDS011;8717;53.588;10.176;2023-08-30T01:05:23;4.23;;;3.77;;
17201;SDS011;8717;53.588;10.176;2023-08-30T01:07:50;3.90;;;3.43;;
17201;SDS011;8717;53.588;10.176;2023-08-30T01:10:17;3.93;;;3.13;;
17201;SDS011;8717;53.588;10.176;2023-08-30T01:12:48;7.30;;;3.83;;
17201;SDS011;8717;53.588;10.176;2023-08-30T01:15:18;5.03;;;4.23;;
17201;SDS011;8717;53.588;10.176;2023-08-30T01:17:46;7.43;;;4.40;;
17201;SDS011;8717;53.588;10.176;2023-08-30T01:20:13;4.60;;;3.90;;
17201;SDS011;8717;53.588;10.176;2023-08-30T01:22:47;4.40;;;4.00;;
17201;SDS011;8717;53.588;10.176;2023-08-30T01:25:31;4.77;;;4.00;;
17201;SDS011;8717;53.588;10.176;2023-08-30T01:28:05;5.17;;;3.83;;
17201;SDS011;8717;53.588;10.176;2023-08-30T01:30:34;4.93;;;4.17;;
17201;SDS011;8717;53.588;10.176;2023-08-30T01:33:03;4.53;;;4.13;;
17201;SDS011;8717;53.588;10.176;2023-08-30T01:35:32;6.20;;;4.50;;
17201;SDS011;8717;53.588;10.176;2023-08-30T01:38:01;7.10;;;4.70;;
17201;SDS011;8717;53.588;10.176;2023-08-30T01:40:30;4.50;;;4.10;;
17201;SDS011;8717;53.588;10.176;2023-08-30T01:43:00;4.90;;;4.47;;
17201;SDS011;8717;53.588;10.176;2023-08-30T01:45:30;4.87;;;3.87;;
17201;SDS011;8717;53.588;10.176;2023-08-30T01:47:59;6.70;;;4.47;;
17201;SDS011;8717;53.588;10.176;2023-08-30T01:50:26;4.90;;;3.80;;
17201;SDS011;8717;53.588;10.176;2023-08-30T01:52:53;4.50;;;3.83;;
17201;SDS011;8717;53.588;10.176;2023-08-30T01:55:22;4.70;;;3.70;;
17201;SDS011;8717;53.588;10.176;2023-08-30T01:57:52;4.93;;;4.43;;
17201;SDS011;8717;53.588;10.176;2023-08-30T02:00:19;5.63;;;4.50;;
17201;SDS011;8717;53.588;10.176;2023-08-30T02:02:47;4.47;;;4.07;;
17201;SDS011;8717;53.588;10.176;2023-08-30T02:05:14;4.70;;;4.20;;
17201;SDS011;8717;53.588;10.176;2023-08-30T02:07:43;4.93;;;4.30;;
17201;SDS011;8717;53.588;10.176;2023-08-30T02:10:19;4.63;;;4.13;;
17201;SDS011;8717;53.588;10.176;2023-08-30T02:12:49;4.47;;;3.73;;
17201;SDS011;8717;53.588;10.176;2023-08-30T02:15:18;4.50;;;4.10;;
17201;SDS011;8717;53.588;10.176;2023-08-30T02:17:47;4.57;;;4.03;;
17201;SDS011;8717;53.588;10.176;2023-08-30T02:20:15;4.00;;;3.60;;
17201;SDS011;8717;53.588;10.176;2023-08-30T02:22:42;4.67;;;4.20;;
17201;SDS011;8717;53.588;10.176;2023-08-30T02:25:09;4.57;;;4.13;;
17201;SDS011;8717;53.588;10.176;2023-08-30T02:27:36;5.10;;;4.60;;
17201;SDS011;8717;53.588;10.176;2023-08-30T02:30:03;6.07;;;5.47;;
17201;SDS011;8717;53.588;10.176;2023-08-30T02:32:31;5.07;;;4.10;;
17201;SDS011;8717;53.588;10.176;2023-08-30T02:34:59;8.00;;;5.30;;
17201;SDS011;8717;53.588;10.176;2023-08-30T02:37:26;5.30;;;4.80;;
17201;SDS011;8717;53.588;10.176;2023-08-30T02:39:51;5.80;;;4.70;;
17201;SDS011;8717;53.588;10.176;2023-08-30T02:42:18;4.93;;;4.37;;
17201;SDS011;8717;53.588;10.176;2023-08-30T02:44:45;5.70;;;5.17;;
17201;SDS011;8717;53.588;10.176;2023-08-30T02:47:12;4.40;;;3.90;;
17201;SDS011;8717;53.588;10.176;2023-08-30T02:49:38;4.17;;;3.77;;
17201;SDS011;8717;53.588;10.176;2023-08-30T02:52:07;3.97;;;3.57;;
17201;SDS011;8717;53.588;10.176;2023-08-30T02:54:33;5.00;;;4.60;;
17201;SDS011;8717;53.588;10.176;2023-08-30T02:57:00;4.93;;;4.53;;
17201;SDS011;8717;53.588;10.176;2023-08-30T02:59:27;6.67;;;5.27;;
17201;SDS011;8717;53.588;10.176;2023-08-30T03:01:53;6.03;;;4.97;;
17201;SDS011;8717;53.588;10.176;2023-08-30T03:04:20;5.73;;;5.00;;
17201;SDS011;8717;53.588;10.176;2023-08-30T03:06:47;6.00;;;4.57;;
17201;SDS011;8717;53.588;10.176;2023-08-30T03:09:15;4.83;;;4.37;;
17201;SDS011;8717;53.588;10.176;2023-08-30T03:11:43;6.57;;;5.00;;
17201;SDS011;8717;53.588;10.176;2023-08-30T03:14:10;5.07;;;4.13;;
17201;SDS011;8717;53.588;10.176;2023-08-30T03:16:37;6.27;;;4.43;;
17201;SDS011;8717;53.588;10.176;2023-08-30T03:19:04;5.47;;;4.97;;
17201;SDS011;8717;53.588;10.176;2023-08-30T03:21:31;5.20;;;4.37;;
17201;SDS011;8717;53.588;10.176;2023-08-30T03:23:58;6.13;;;4.80;;
17201;SDS011;8717;53.588;10.176;2023-08-30T03:26:26;5.97;;;4.17;;
17201;SDS011;8717;53.588;10.176;2023-08-30T03:28:53;5.40;;;4.90;;
17201;SDS011;8717;53.588;10.176;2023-08-30T03:31:21;5.43;;;4.60;;
17201;SDS011;8717;53.588;10.176;2023-08-30T03:33:49;7.67;;;5.20;;
17201;SDS011;8717;53.588;10.176;2023-08-30T03:36:17;5.40;;;4.80;;
17201;SDS011;8717;53.588;10.176;2023-08-30T03:38:44;5.23;;;4.67;;
17201;SDS011;8717;53.588;10.176;2023-08-30T03:41:11;6.20;;;4.10;;
17201;SDS011;8717;53.588;10.176;2023-08-30T03:43:40;4.67;;;4.07;;
17201;SDS011;8717;53.588;10.176;2023-08-30T03:46:08;6.00;;;4.77;;
17201;SDS011;8717;53.588;10.176;2023-08-30T03:48:36;4.53;;;4.13;;
17201;SDS011;8717;53.588;10.176;2023-08-30T03:51:03;6.67;;;3.70;;
17201;SDS011;8717;53.588;10.176;2023-08-30T03:53:31;4.83;;;4.00;;
17201;SDS011;8717;53.588;10.176;2023-08-30T03:55:58;4.73;;;3.80;;
17201;SDS011;8717;53.588;10.176;2023-08-30T03:58:25;5.07;;;3.80;;
17201;SDS011;8717;53.588;10.176;2023-08-30T04:00:53;4.97;;;3.83;;
17201;SDS011;8717;53.588;10.176;2023-08-30T04:03:20;4.67;;;3.90;;
17201;SDS011;8717;53.588;10.176;2023-08-30T04:05:47;5.77;;;4.13;;
17201;SDS011;8717;53.588;10.176;2023-08-30T04:08:13;5.77;;;4.93;;
17201;SDS011;8717;53.588;10.176;2023-08-30T04:10:40;5.43;;;4.93;;
17201;SDS011;8717;53.588;10.176;2023-08-30T04:13:08;6.27;;;5.63;;
17201;SDS011;8717;53.588;10.176;2023-08-30T04:15:35;7.57;;;5.43;;
17201;SDS011;8717;53.588;10.176;2023-08-30T04:18:04;6.63;;;5.93;;
17201;SDS011;8717;53.588;10.176;2023-08-30T04:20:32;7.27;;;5.60;;
17201;SDS011;8717;53.588;10.176;2023-08-30T04:22:59;7.83;;;4.83;;
17201;SDS011;8717;53.588;10.176;2023-08-30T04:25:28;6.23;;;5.37;;
17201;SDS011;8717;53.588;10.176;2023-08-30T04:27:57;6.03;;;5.17;;
17201;SDS011;8717;53.588;10.176;2023-08-30T04:30:24;9.93;;;6.47;;
17201;SDS011;8717;53.588;10.176;2023-08-30T04:32:51;7.43;;;6.27;;
17201;SDS011;8717;53.588;10.176;2023-08-30T04:35:19;9.60;;;6.50;;
17201;SDS011;8717;53.588;10.176;2023-08-30T04:37:46;7.53;;;6.77;;
17201;SDS011;8717;53.588;10.176;2023-08-30T04:40:13;6.93;;;6.23;;
17201;SDS011;8717;53.588;10.176;2023-08-30T04:42:40;8.13;;;6.97;;
17201;SDS011;8717;53.588;10.176;2023-08-30T04:45:07;7.37;;;6.67;;
17201;SDS011;8717;53.588;10.176;2023-08-30T04:47:35;8.83;;;7.30;;
17201;SDS011;8717;53.588;10.176;2023-08-30T04:50:02;8.40;;;7.17;;
17201;SDS011;8717;53.588;10.176;2023-08-30T04:52:30;9.00;;;7.97;;
17201;SDS011;8717;53.588;10.176;2023-08-30T04:54:58;7.57;;;6.80;;
17201;SDS011;8717;53.588;10.176;2023-08-30T04:57:26;7.10;;;6.40;;
17201;SDS011;8717;53.588;10.176;2023-08-30T04:59:53;8.33;;;7.33;;
17201;SDS011;8717;53.588;10.176;2023-08-30T05:02:19;8.70;;;7.80;;
17201;SDS011;8717;53.588;10.176;2023-08-30T05:05:13;11.47;;;8.73;;
17201;SDS011;8717;53.588;10.176;2023-08-30T05:07:42;8.90;;;8.00;;
17201;SDS011;8717;53.588;10.176;2023-08-30T05:10:09;13.60;;;9.20;;
17201;SDS011;8717;53.588;10.176;2023-08-30T05:12:36;11.57;;;9.07;;
17201;SDS011;8717;53.588;10.176;2023-08-30T05:15:04;10.20;;;8.73;;
17201;SDS011;8717;53.588;10.176;2023-08-30T05:17:32;9.60;;;8.47;;
17201;SDS011;8717;53.588;10.176;2023-08-30T05:19:59;10.00;;;8.23;;
17201;SDS011;8717;53.588;10.176;2023-08-30T05:22:26;9.73;;;8.30;;
17201;SDS011;8717;53.588;10.176;2023-08-30T05:24:54;9.63;;;8.17;;
17201;SDS011;8717;53.588;10.176;2023-08-30T05:27:21;9.40;;;8.40;;
17201;SDS011;8717;53.588;10.176;2023-08-30T05:29:48;9.87;;;8.47;;
17201;SDS011;8717;53.588;10.176;2023-08-30T05:32:15;9.30;;;7.23;;
17201;SDS011;8717;53.588;10.176;2023-08-30T05:35:00;8.27;;;7.47;;
17201;SDS011;8717;53.588;10.176;2023-08-30T05:37:46;9.23;;;7.97;;
17201;SDS011;8717;53.588;10.176;2023-08-30T05:40:35;9.40;;;8.40;;
17201;SDS011;8717;53.588;10.176;2023-08-30T05:43:07;11.30;;;8.07;;
17201;SDS011;8717;53.588;10.176;2023-08-30T05:45:34;7.80;;;7.00;;
17201;SDS011;8717;53.588;10.176;2023-08-30T05:48:00;8.13;;;6.97;;
17201;SDS011;8717;53.588;10.176;2023-08-30T05:50:29;8.10;;;7.07;;
17201;SDS011;8717;53.588;10.176;2023-08-30T05:52:56;7.53;;;6.73;;
17201;SDS011;8717;53.588;10.176;2023-08-30T05:55:23;7.17;;;6.47;;
17201;SDS011;8717;53.588;10.176;2023-08-30T05:57:51;8.17;;;6.73;;
17201;SDS011;8717;53.588;10.176;2023-08-30T06:00:18;7.63;;;6.43;;
17201;SDS011;8717;53.588;10.176;2023-08-30T06:02:45;8.77;;;6.80;;
17201;SDS011;8717;53.588;10.176;2023-08-30T06:05:12;7.20;;;6.50;;
17201;SDS011;8717;53.588;10.176;2023-08-30T06:07:38;8.40;;;6.60;;
17201;SDS011;8717;53.588;10.176;2023-08-30T06:10:05;7.10;;;6.37;;
17201;SDS011;8717;53.588;10.176;2023-08-30T06:12:33;6.90;;;6.20;;
17201;SDS011;8717;53.588;10.176;2023-08-30T06:15:01;8.37;;;6.00;;
17201;SDS011;8717;53.588;10.176;2023-08-30T06:17:28;7.40;;;6.43;;
17201;SDS011;8717;53.588;10.176;2023-08-30T06:19:55;6.30;;;5.63;;
17201;SDS011;8717;53.588;10.176;2023-08-30T06:22:22;7.93;;;6.40;;
17201;SDS011;8717;53.588;10.176;2023-08-30T06:24:48;7.80;;;6.13;;
17201;SDS011;8717;53.588;10.176;2023-08-30T06:27:15;6.63;;;5.97;;
17201;SDS011;8717;53.588;10.176;2023-08-30T06:29:42;8.40;;;6.03;;
17201;SDS011;8717;53.588;10.176;2023-08-30T06:32:10;7.07;;;6.03;;
17201;SDS011;8717;53.588;10.176;2023-08-30T06:34:36;6.57;;;5.77;;
17201;SDS011;8717;53.588;10.176;2023-08-30T06:37:03;7.37;;;6.40;;
17201;SDS011;8717;53.588;10.176;2023-08-30T06:39:33;6.03;;;5.43;;
17201;SDS011;8717;53.588;10.176;2023-08-30T06:42:01;8.27;;;5.80;;
17201;SDS011;8717;53.588;10.176;2023-08-30T06:44:28;5.37;;;4.87;;
17201;SDS011;8717;53.588;10.176;2023-08-30T06:46:55;6.90;;;5.73;;
17201;SDS011;8717;53.588;10.176;2023-08-30T06:49:23;6.30;;;5.07;;
17201;SDS011;8717;53.588;10.176;2023-08-30T06:51:50;6.20;;;5.70;;
17201;SDS011;8717;53.588;10.176;2023-08-30T06:54:16;6.17;;;5.60;;
17201;SDS011;8717;53.588;10.176;2023-08-30T06:56:45;6.17;;;5.57;;
17201;SDS011;8717;53.588;10.176;2023-08-30T06:59:22;7.17;;;5.53;;
17201;SDS011;8717;53.588;10.176;2023-08-30T07:01:49;6.63;;;5.07;;
17201;SDS011;8717;53.588;10.176;2023-08-30T07:04:16;7.10;;;5.27;;
17201;SDS011;8717;53.588;10.176;2023-08-30T07:06:44;6.80;;;5.53;;
17201;SDS011;8717;53.588;10.176;2023-08-30T07:09:10;7.00;;;5.40;;
17201;SDS011;8717;53.588;10.176;2023-08-30T07:11:37;5.90;;;5.27;;
17201;SDS011;8717;53.588;10.176;2023-08-30T07:14:04;9.17;;;5.30;;
17201;SDS011;8717;53.588;10.176;2023-08-30T07:16:31;5.73;;;5.23;;
17201;SDS011;8717;53.588;10.176;2023-08-30T07:18:58;5.43;;;4.93;;
17201;SDS011;8717;53.588;10.176;2023-08-30T07:21:25;7.00;;;5.03;;
17201;SDS011;8717;53.588;10.176;2023-08-30T07:23:53;6.53;;;5.00;;
17201;SDS011;8717;53.588;10.176;2023-08-30T07:26:20;6.37;;;5.10;;
17201;SDS011;8717;53.588;10.176;2023-08-30T07:28:46;5.63;;;4.83;;
17201;SDS011;8717;53.588;10.176;2023-08-30T07:31:13;8.00;;;5.20;;
17201;SDS011;8717;53.588;10.176;2023-08-30T07:33:41;7.73;;;5.37;;
17201;SDS011;8717;53.588;10.176;2023-08-30T07:36:08;5.60;;;4.67;;
17201;SDS011;8717;53.588;10.176;2023-08-30T07:38:34;5.90;;;5.10;;
17201;SDS011;8717;53.588;10.176;2023-08-30T07:41:02;5.85;;;5.20;;
17201;SDS011;8717;53.588;10.176;2023-08-30T07:43:29;5.45;;;4.95;;
17201;SDS011;8717;53.588;10.176;2023-08-30T07:45:57;5.70;;;5.15;;
17201;SDS011;8717;53.588;10.176;2023-08-30T07:48:24;5.82;;;4.47;;
17201;SDS011;8717;53.588;10.176;2023-08-30T07:50:51;7.78;;;5.22;;
17201;SDS011;8717;53.588;10.176;2023-08-30T07:53:18;6.07;;;4.40;;
17201;SDS011;8717;53.588;10.176;2023-08-30T07:55:47;5.88;;;4.47;;
17201;SDS011;8717;53.588;10.176;2023-08-30T07:58:16;5.32;;;4.80;;
17201;SDS011;8717;53.588;10.176;2023-08-30T08:00:43;4.93;;;4.50;;
17201;SDS011;8717;53.588;10.176;2023-08-30T08:03:10;6.47;;;4.85;;
17201;SDS011;8717;53.588;10.176;2023-08-30T08:05:40;7.10;;;4.82;;
17201;SDS011;8717;53.588;10.176;2023-08-30T08:08:07;5.45;;;4.40;;
17201;SDS011;8717;53.588;10.176;2023-08-30T08:10:36;7.00;;;5.10;;
17201;SDS011;8717;53.588;10.176;2023-08-30T08:13:02;5.32;;;4.78;;
17201;SDS011;8717;53.588;10.176;2023-08-30T08:15:31;5.72;;;4.80;;
17201;SDS011;8717;53.588;10.176;2023-08-30T08:17:58;5.72;;;5.13;;
17201;SDS011;8717;53.588;10.176;2023-08-30T08:20:25;6.40;;;4.82;;
17201;SDS011;8717;53.588;10.176;2023-08-30T08:22:52;6.13;;;4.85;;
17201;SDS011;8717;53.588;10.176;2023-08-30T08:25:19;6.45;;;5.35;;
17201;SDS011;8717;53.588;10.176;2023-08-30T08:27:47;5.63;;;5.07;;
17201;SDS011;8717;53.588;10.176;2023-08-30T08:30:13;5.78;;;5.00;;
17201;SDS011;8717;53.588;10.176;2023-08-30T08:32:41;8.32;;;5.00;;
17201;SDS011;8717;53.588;10.176;2023-08-30T08:35:08;5.80;;;5.30;;
17201;SDS011;8717;53.588;10.176;2023-08-30T08:37:35;5.40;;;4.90;;
17201;SDS011;8717;53.588;10.176;2023-08-30T08:40:02;5.60;;;5.10;;
17201;SDS011;8717;53.588;10.176;2023-08-30T08:42:33;5.90;;;5.30;;
17201;SDS011;8717;53.588;10.176;2023-08-30T08:45:01;6.05;;;5.45;;
17201;SDS011;8717;53.588;10.176;2023-08-30T08:47:29;6.95;;;5.00;;
17201;SDS011;8717;53.588;10.176;2023-08-30T08:49:58;5.53;;;4.75;;
17201;SDS011;8717;53.588;10.176;2023-08-30T08:52:25;6.07;;;4.72;;
17201;SDS011;8717;53.588;10.176;2023-08-30T08:54:52;6.35;;;5.75;;
17201;SDS011;8717;53.588;10.176;2023-08-30T08:57:20;6.28;;;5.68;;
17201;SDS011;8717;53.588;10.176;2023-08-30T08:59:47;7.07;;;5.75;;
17201;SDS011;8717;53.588;10.176;2023-08-30T09:02:15;6.75;;;5.60;;
17201;SDS011;8717;53.588;10.176;2023-08-30T09:04:42;6.43;;;5.65;;
17201;SDS011;8717;53.588;10.176;2023-08-30T09:07:10;7.53;;;6.22;;
17201;SDS011;8717;53.588;10.176;2023-08-30T09:09:38;8.35;;;6.35;;
17201;SDS011;8717;53.588;10.176;2023-08-30T09:12:05;6.85;;;5.75;;
17201;SDS011;8717;53.588;10.176;2023-08-30T09:14:32;8.32;;;5.15;;
17201;SDS011;8717;53.588;10.176;2023-08-30T09:16:59;9.75;;;5.95;;
17201;SDS011;8717;53.588;10.176;2023-08-30T09:19:27;7.43;;;6.05;;
17201;SDS011;8717;53.588;10.176;2023-08-30T09:21:54;7.72;;;6.00;;
17201;SDS011;8717;53.588;10.176;2023-08-30T09:24:22;8.18;;;5.45;;
17201;SDS011;8717;53.588;10.176;2023-08-30T09:26:50;7.43;;;6.07;;
17201;SDS011;8717;53.588;10.176;2023-08-30T09:29:18;7.30;;;5.65;;
17201;SDS011;8717;53.588;10.176;2023-08-30T09:31:45;7.13;;;5.78;;
17201;SDS011;8717;53.588;10.176;2023-08-30T09:34:12;8.48;;;5.82;;
17201;SDS011;8717;53.588;10.176;2023-08-30T09:36:40;9.82;;;6.95;;
17201;SDS011;8717;53.588;10.176;2023-08-30T09:39:07;6.93;;;5.70;;
17201;SDS011;8717;53.588;10.176;2023-08-30T09:41:36;8.73;;;6.45;;
17201;SDS011;8717;53.588;10.176;2023-08-30T09:44:06;6.50;;;5.75;;
17201;SDS011;8717;53.588;10.176;2023-08-30T09:46:39;5.95;;;5.43;;
17201;SDS011;8717;53.588;10.176;2023-08-30T09:49:08;8.95;;;6.53;;
17201;SDS011;8717;53.588;10.176;2023-08-30T09:51:35;7.82;;;5.63;;
17201;SDS011;8717;53.588;10.176;2023-08-30T09:54:06;6.65;;;5.93;;
17201;SDS011;8717;53.588;10.176;2023-08-30T09:56:40;6.88;;;5.45;;
17201;SDS011;8717;53.588;10.176;2023-08-30T09:59:07;6.53;;;5.60;;
17201;SDS011;8717;53.588;10.176;2023-08-30T10:01:36;7.35;;;5.57;;
17201;SDS011;8717;53.588;10.176;2023-08-30T10:04:03;5.82;;;5.20;;
17201;SDS011;8717;53.588;10.176;2023-08-30T10:06:30;6.32;;;5.40;;
17201;SDS011;8717;53.588;10.176;2023-08-30T10:08:58;5.90;;;4.30;;
17201;SDS011;8717;53.588;10.176;2023-08-30T10:11:25;6.57;;;4.53;;
17201;SDS011;8717;53.588;10.176;2023-08-30T10:13:55;4.72;;;4.10;;
17201;SDS011;8717;53.588;10.176;2023-08-30T10:16:23;6.00;;;4.13;;
17201;SDS011;8717;53.588;10.176;2023-08-30T10:18:53;5.07;;;4.20;;
17201;SDS011;8717;53.588;10.176;2023-08-30T10:21:27;5.95;;;4.35;;
17201;SDS011;8717;53.588;10.176;2023-08-30T10:23:55;4.15;;;3.72;;
17201;SDS011;8717;53.588;10.176;2023-08-30T10:26:24;6.03;;;3.83;;
17201;SDS011;8717;53.588;10.176;2023-08-30T10:28:53;4.95;;;3.75;;
17201;SDS011;8717;53.588;10.176;2023-08-30T10:31:22;7.93;;;4.53;;
17201;SDS011;8717;53.588;10.176;2023-08-30T10:33:49;7.03;;;4.15;;
17201;SDS011;8717;53.588;10.176;2023-08-30T10:36:21;7.32;;;4.28;;
17201;SDS011;8717;53.588;10.176;2023-08-30T10:38:48;5.70;;;4.10;;
17201;SDS011;8717;53.588;10.176;2023-08-30T10:41:19;9.15;;;5.20;;
17201;SDS011;8717;53.588;10.176;2023-08-30T10:43:49;7.15;;;4.63;;
17201;SDS011;8717;53.588;10.176;2023-08-30T10:46:28;5.75;;;4.25;;
17201;SDS011;8717;53.588;10.176;2023-08-30T10:48:55;5.60;;;3.90;;
17201;SDS011;8717;53.588;10.176;2023-08-30T10:51:34;5.35;;;4.15;;
17201;SDS011;8717;53.588;10.176;2023-08-30T10:54:09;7.40;;;3.88;;
17201;SDS011;8717;53.588;10.176;2023-08-30T10:56:44;6.90;;;3.65;;
17201;SDS011;8717;53.588;10.176;2023-08-30T10:59:15;5.78;;;3.83;;
17201;SDS011;8717;53.588;10.176;2023-08-30T11:01:44;5.20;;;3.28;;
17201;SDS011;8717;53.588;10.176;2023-08-30T11:04:12;4.88;;;3.50;;
17201;SDS011;8717;53.588;10.176;2023-08-30T11:06:40;6.15;;;3.80;;
17201;SDS011;8717;53.588;10.176;2023-08-30T11:09:07;4.35;;;3.47;;
17201;SDS011;8717;53.588;10.176;2023-08-30T11:11:34;4.00;;;3.20;;
17201;SDS011;8717;53.588;10.176;2023-08-30T11:14:06;4.70;;;3.58;;
17201;SDS011;8717;53.588;10.176;2023-08-30T11:16:34;4.65;;;3.47;;
17201;SDS011;8717;53.588;10.176;2023-08-30T11:19:02;5.10;;;4.00;;
17201;SDS011;8717;53.588;10.176;2023-08-30T11:21:30;4.90;;;3.90;;
17201;SDS011;8717;53.588;10.176;2023-08-30T11:23:58;5.38;;;4.20;;
17201;SDS011;8717;53.588;10.176;2023-08-30T11:26:24;4.82;;;3.70;;
17201;SDS011;8717;53.588;10.176;2023-08-30T11:28:51;4.95;;;3.42;;
17201;SDS011;8717;53.588;10.176;2023-08-30T11:31:19;4.75;;;3.75;;
17201;SDS011;8717;53.588;10.176;2023-08-30T11:33:51;6.45;;;3.45;;
17201;SDS011;8717;53.588;10.176;2023-08-30T11:36:19;3.55;;;3.08;;
17201;SDS011;8717;53.588;10.176;2023-08-30T11:38:47;6.90;;;4.05;;
17201;SDS011;8717;53.588;10.176;2023-08-30T11:41:14;4.68;;;3.35;;
17201;SDS011;8717;53.588;10.176;2023-08-30T11:43:40;6.30;;;3.53;;
17201;SDS011;8717;53.588;10.176;2023-08-30T11:46:07;4.03;;;2.97;;
17201;SDS011;8717;53.588;10.176;2023-08-30T11:48:34;3.58;;;3.00;;
17201;SDS011;8717;53.588;10.176;2023-08-30T11:51:01;3.35;;;2.75;;
17201;SDS011;8717;53.588;10.176;2023-08-30T11:53:30;3.50;;;3.10;;
17201;SDS011;8717;53.588;10.176;2023-08-30T11:55:57;3.88;;;2.65;;
17201;SDS011;8717;53.588;10.176;2023-08-30T11:58:24;3.38;;;2.47;;
17201;SDS011;8717;53.588;10.176;2023-08-30T12:00:51;3.03;;;2.40;;
17201;SDS011;8717;53.588;10.176;2023-08-30T12:03:19;3.42;;;2.47;;
17201;SDS011;8717;53.588;10.176;2023-08-30T12:05:46;2.88;;;2.33;;
17201;SDS011;8717;53.588;10.176;2023-08-30T12:08:18;4.78;;;2.65;;
17201;SDS011;8717;53.588;10.176;2023-08-30T12:10:46;4.18;;;2.75;;
17201;SDS011;8717;53.588;10.176;2023-08-30T12:13:19;5.78;;;2.47;;
17201;SDS011;8717;53.588;10.176;2023-08-30T12:15:47;3.97;;;2.60;;
17201;SDS011;8717;53.588;10.176;2023-08-30T12:18:14;3.17;;;2.83;;
17201;SDS011;8717;53.588;10.176;2023-08-30T12:20:50;4.05;;;3.30;;
17201;SDS011;8717;53.588;10.176;2023-08-30T12:23:21;4.22;;;2.92;;
17201;SDS011;8717;53.588;10.176;2023-08-30T12:26:03;4.22;;;3.22;;
17201;SDS011;8717;53.588;10.176;2023-08-30T12:28:31;4.00;;;2.90;;
17201;SDS011;8717;53.588;10.176;2023-08-30T12:30:58;5.85;;;3.20;;
17201;SDS011;8717;53.588;10.176;2023-08-30T12:33:25;3.63;;;2.83;;
17201;SDS011;8717;53.588;10.176;2023-08-30T12:35:53;5.47;;;3.30;;
17201;SDS011;8717;53.588;10.176;2023-08-30T12:38:20;3.88;;;2.90;;
17201;SDS011;8717;53.588;10.176;2023-08-30T12:40:47;3.60;;;2.80;;
17201;SDS011;8717;53.588;10.176;2023-08-30T12:43:16;4.88;;;2.83;;
17201;SDS011;8717;53.588;10.176;2023-08-30T12:45:45;4.90;;;2.70;;
17201;SDS011;8717;53.588;10.176;2023-08-30T12:48:12;3.40;;;2.70;;
17201;SDS011;8717;53.588;10.176;2023-08-30T12:50:40;4.25;;;3.03;;
17201;SDS011;8717;53.588;10.176;2023-08-30T12:53:08;5.30;;;2.78;;
17201;SDS011;8717;53.588;10.176;2023-08-30T12:55:35;5.38;;;2.75;;
17201;SDS011;8717;53.588;10.176;2023-08-30T12:58:04;3.50;;;2.78;;
17201;SDS011;8717;53.588;10.176;2023-08-30T13:00:32;3.95;;;3.15;;
17201;SDS011;8717;53.588;10.176;2023-08-30T13:02:59;5.55;;;2.85;;
17201;SDS011;8717;53.588;10.176;2023-08-30T13:05:28;4.82;;;3.03;;
17201;SDS011;8717;53.588;10.176;2023-08-30T13:07:55;3.88;;;3.10;;
17201;SDS011;8717;53.588;10.176;2023-08-30T13:10:22;5.90;;;2.90;;
17201;SDS011;8717;53.588;10.176;2023-08-30T13:12:49;3.97;;;3.38;;
17201;SDS011;8717;53.588;10.176;2023-08-30T13:15:15;4.72;;;3.15;;
17201;SDS011;8717;53.588;10.176;2023-08-30T13:17:44;3.97;;;2.70;;
17201;SDS011;8717;53.588;10.176;2023-08-30T13:20:10;5.35;;;3.25;;
17201;SDS011;8717;53.588;10.176;2023-08-30T13:22:37;5.28;;;3.10;;
17201;SDS011;8717;53.588;10.176;2023-08-30T13:25:04;3.40;;;2.75;;
17201;SDS011;8717;53.588;10.176;2023-08-30T13:27:32;5.28;;;3.40;;
17201;SDS011;8717;53.588;10.176;2023-08-30T13:29:59;4.97;;;3.20;;
17201;SDS011;8717;53.588;10.176;2023-08-30T13:32:26;5.53;;;3.20;;
17201;SDS011;8717;53.588;10.176;2023-08-30T13:34:54;4.82;;;3.33;;
17201;SDS011;8717;53.588;10.176;2023-08-30T13:37:21;4.68;;;3.08;;
17201;SDS011;8717;53.588;10.176;2023-08-30T13:39:48;4.60;;;2.95;;
17201;SDS011;8717;53.588;10.176;2023-08-30T13:42:15;3.95;;;3.22;;
17201;SDS011;8717;53.588;10.176;2023-08-30T13:44:42;4.30;;;3.47;;
17201;SDS011;8717;53.588;10.176;2023-08-30T13:47:09;4.70;;;3.03;;
17201;SDS011;8717;53.588;10.176;2023-08-30T13:49:35;5.60;;;3.00;;
17201;SDS011;8717;53.588;10.176;2023-08-30T13:52:05;3.20;;;2.50;;
17201;SDS011;8717;53.588;10.176;2023-08-30T13:54:32;3.20;;;2.65;;
17201;SDS011;8717;53.588;10.176;2023-08-30T13:56:59;3.13;;;2.63;;
17201;SDS011;8717;53.588;10.176;2023-08-30T13:59:26;3.42;;;2.55;;
17201;SDS011;8717;53.588;10.176;2023-08-30T14:01:53;3.30;;;2.80;;
17201;SDS011;8717;53.588;10.176;2023-08-30T14:04:23;4.28;;;2.97;;
17201;SDS011;8717;53.588;10.176;2023-08-30T14:06:50;4.22;;;2.30;;
17201;SDS011;8717;53.588;10.176;2023-08-30T14:09:18;4.68;;;3.58;;
17201;SDS011;8717;53.588;10.176;2023-08-30T14:11:45;4.38;;;2.97;;
17201;SDS011;8717;53.588;10.176;2023-08-30T14:14:12;3.63;;;2.97;;
17201;SDS011;8717;53.588;10.176;2023-08-30T14:16:39;5.82;;;3.25;;
17201;SDS011;8717;53.588;10.176;2023-08-30T14:19:05;4.85;;;2.88;;
17201;SDS011;8717;53.588;10.176;2023-08-30T14:21:32;5.35;;;3.05;;
17201;SDS011;8717;53.588;10.176;2023-08-30T14:23:59;4.05;;;2.97;;
17201;SDS011;8717;53.588;10.176;2023-08-30T14:26:27;2.97;;;2.58;;
17201;SDS011;8717;53.588;10.176;2023-08-30T14:28:54;3.47;;;2.75;;
17201;SDS011;8717;53.588;10.176;2023-08-30T14:31:21;3.58;;;2.65;;
17201;SDS011;8717;53.588;10.176;2023-08-30T14:33:49;4.85;;;2.50;;
17201;SDS011;8717;53.588;10.176;2023-08-30T14:36:16;3.25;;;2.60;;
17201;SDS011;8717;53.588;10.176;2023-08-30T14:38:42;4.38;;;3.00;;
17201;SDS011;8717;53.588;10.176;2023-08-30T14:41:09;2.78;;;2.25;;
17201;SDS011;8717;53.588;10.176;2023-08-30T14:44:14;5.00;;;3.00;;
17201;SDS011;8717;53.588;10.176;2023-08-30T14:46:41;3.55;;;2.90;;
17201;SDS011;8717;53.588;10.176;2023-08-30T14:49:08;4.82;;;2.97;;
17201;SDS011;8717;53.588;10.176;2023-08-30T14:51:35;4.03;;;2.97;;
17201;SDS011;8717;53.588;10.176;2023-08-30T14:54:01;4.35;;;2.75;;